createdAt,value
2022-11-06T00:01:59.831Z,3.10
2022-11-06T00:04:29.745Z,3.33
2022-11-06T00:06:57.093Z,3.45
2022-11-06T00:09:24.356Z,3.03
2022-11-06T00:11:52.854Z,2.78
2022-11-06T00:14:20.163Z,3.08
2022-11-06T00:16:47.831Z,3.38
2022-11-06T00:19:15.563Z,3.20
2022-11-06T00:21:43.476Z,2.63
2022-11-06T00:24:13.566Z,2.75
2022-11-06T00:26:40.812Z,3.22
2022-11-06T00:29:14.223Z,2.70
2022-11-06T00:31:41.873Z,2.90
2022-11-06T00:34:10.619Z,2.83
2022-11-06T00:36:38.431Z,3.03
2022-11-06T00:39:05.710Z,3.42
2022-11-06T00:41:33.038Z,3.10
2022-11-06T00:44:01.984Z,3.45
2022-11-06T00:46:29.514Z,3.22
2022-11-06T00:48:57.082Z,2.88
2022-11-06T00:51:31.054Z,3.35
2022-11-06T00:54:00.656Z,3.45
2022-11-06T00:56:28.084Z,3.45
2022-11-06T00:58:55.552Z,3.92
2022-11-06T01:01:24.475Z,3.03
2022-11-06T01:03:55.588Z,3.53
2022-11-06T01:06:24.944Z,3.85
2022-11-06T01:08:52.745Z,3.35
2022-11-06T01:11:37.452Z,4.03
2022-11-06T01:14:15.727Z,3.40
2022-11-06T01:16:43.603Z,5.07
2022-11-06T01:19:12.935Z,4.10
2022-11-06T01:21:42.207Z,3.78
2022-11-06T01:24:16.078Z,3.90
2022-11-06T01:27:04.824Z,4.03
2022-11-06T01:29:30.853Z,3.72
2022-11-06T01:31:58.350Z,3.72
2022-11-06T01:34:25.950Z,3.00
2022-11-06T01:36:53.264Z,3.72
2022-11-06T01:39:20.542Z,4.43
2022-11-06T01:41:50.369Z,3.42
2022-11-06T01:44:35.809Z,3.70
2022-11-06T01:47:22.678Z,3.30
2022-11-06T01:49:51.822Z,3.20
2022-11-06T01:52:20.386Z,3.92
2022-11-06T01:54:57.182Z,3.90
2022-11-06T01:57:24.981Z,3.42
2022-11-06T01:59:54.520Z,3.63
2022-11-06T02:02:22.351Z,3.90
2022-11-06T02:04:50.237Z,3.10
2022-11-06T02:07:18.972Z,3.75
2022-11-06T02:09:46.850Z,3.67
2022-11-06T02:12:45.034Z,3.88
2022-11-06T02:15:58.080Z,3.53
2022-11-06T02:18:33.986Z,3.50
2022-11-06T02:21:26.115Z,3.28
2022-11-06T02:23:56.823Z,3.55
2022-11-06T02:27:06.406Z,3.30
2022-11-06T02:29:37.090Z,3.22
2022-11-06T02:32:17.551Z,3.80
2022-11-06T02:34:46.313Z,3.00
2022-11-06T02:37:26.170Z,3.30
2022-11-06T02:39:57.266Z,3.30
2022-11-06T02:42:27.126Z,2.60
2022-11-06T02:44:56.680Z,3.08
2022-11-06T02:47:26.416Z,3.47
2022-11-06T02:50:04.593Z,3.13
2022-11-06T02:52:40.182Z,3.03
2022-11-06T02:55:17.154Z,2.53
2022-11-06T02:57:50.604Z,3.45
2022-11-06T03:00:18.528Z,3.17
2022-11-06T03:02:54.809Z,2.90
2022-11-06T03:05:25.413Z,3.08
2022-11-06T03:08:01.681Z,2.80
2022-11-06T03:10:34.240Z,2.78
2022-11-06T03:13:20.274Z,2.63
2022-11-06T03:16:08.384Z,3.22
2022-11-06T03:19:06.358Z,2.67
2022-11-06T03:21:51.247Z,2.80
2022-11-06T03:24:31.507Z,3.08
2022-11-06T03:27:02.372Z,2.60
2022-11-06T03:29:45.759Z,2.38
2022-11-06T03:32:20.491Z,2.40
2022-11-06T03:37:23.259Z,2.40
2022-11-06T03:39:55.017Z,2.72
2022-11-06T03:42:26.208Z,2.30
2022-11-06T03:45:01.998Z,2.05
2022-11-06T03:47:42.387Z,2.33
2022-11-06T03:50:15.304Z,2.05
2022-11-06T03:52:50.942Z,2.28
2022-11-06T03:55:24.808Z,2.10
2022-11-06T03:58:06.322Z,2.20
2022-11-06T04:00:36.567Z,2.35
2022-11-06T04:03:18.414Z,2.50
2022-11-06T04:05:53.456Z,2.45
2022-11-06T04:08:45.042Z,2.42
2022-11-06T04:11:35.578Z,2.70
2022-11-06T04:14:05.513Z,2.47
2022-11-06T04:16:39.698Z,2.70
2022-11-06T04:19:18.113Z,2.90
2022-11-06T04:22:17.268Z,1.95
2022-11-06T04:25:14.889Z,2.45
2022-11-06T04:27:56.952Z,2.53
2022-11-06T04:30:24.521Z,2.75
2022-11-06T04:33:12.494Z,2.00
2022-11-06T04:35:46.067Z,2.45
2022-11-06T04:38:41.806Z,2.10
2022-11-06T04:41:20.991Z,2.22
2022-11-06T04:44:04.152Z,2.28
2022-11-06T04:46:37.169Z,2.05
2022-11-06T04:49:06.084Z,2.50
2022-11-06T04:51:37.277Z,1.95
2022-11-06T04:54:08.855Z,2.00
2022-11-06T04:56:40.151Z,1.85
2022-11-06T04:59:15.925Z,2.03
2022-11-06T05:01:43.701Z,1.90
2022-11-06T05:04:12.104Z,2.03
2022-11-06T05:06:39.367Z,1.98
2022-11-06T05:09:06.726Z,2.72
2022-11-06T05:11:34.051Z,1.60
2022-11-06T05:14:01.297Z,1.63
2022-11-06T05:16:28.521Z,2.30
2022-11-06T05:18:55.755Z,2.35
2022-11-06T05:21:42.311Z,2.35
2022-11-06T05:24:09.910Z,1.95
2022-11-06T05:26:37.329Z,2.00
2022-11-06T05:29:04.542Z,2.30
2022-11-06T05:31:31.770Z,2.03
2022-11-06T05:33:59.012Z,2.03
2022-11-06T05:36:26.332Z,2.20
2022-11-06T05:38:53.576Z,3.10
2022-11-06T05:41:20.831Z,2.17
2022-11-06T05:43:48.201Z,1.85
2022-11-06T05:46:35.721Z,1.88
2022-11-06T05:49:02.730Z,1.98
2022-11-06T05:51:30.277Z,2.53
2022-11-06T05:53:57.552Z,2.65
2022-11-06T05:56:24.863Z,1.80
2022-11-06T05:58:52.131Z,3.08
2022-11-06T06:01:19.497Z,2.78
2022-11-06T06:03:46.909Z,2.42
2022-11-06T06:06:14.148Z,2.50
2022-11-06T06:08:41.367Z,3.03
2022-11-06T06:11:08.623Z,2.83
2022-11-06T06:13:37.472Z,3.00
2022-11-06T06:16:05.208Z,2.90
2022-11-06T06:18:32.528Z,3.10
2022-11-06T06:20:59.873Z,2.97
2022-11-06T06:23:27.147Z,2.90
2022-11-06T06:25:54.383Z,2.75
2022-11-06T06:28:21.631Z,2.80
2022-11-06T06:30:48.973Z,3.03
2022-11-06T06:33:16.249Z,2.75
2022-11-06T06:35:43.607Z,3.47
2022-11-06T06:38:11.321Z,2.70
2022-11-06T06:40:39.391Z,3.37
2022-11-06T06:43:06.669Z,2.78
2022-11-06T06:45:33.974Z,2.85
2022-11-06T06:48:05.131Z,2.55
2022-11-06T06:50:32.812Z,3.05
2022-11-06T06:53:00.422Z,2.95
2022-11-06T06:55:27.875Z,3.08
2022-11-06T06:58:00.844Z,3.30
2022-11-06T07:00:29.218Z,2.92
2022-11-06T07:02:57.081Z,2.53
2022-11-06T07:05:24.812Z,2.85
2022-11-06T07:07:52.029Z,2.63
2022-11-06T07:10:19.674Z,3.10
2022-11-06T07:12:47.080Z,2.33
2022-11-06T07:15:14.822Z,3.22
2022-11-06T07:17:42.076Z,2.53
2022-11-06T07:20:10.641Z,2.72
2022-11-06T07:22:38.022Z,2.30
2022-11-06T07:25:06.423Z,3.45
2022-11-06T07:27:33.861Z,2.20
2022-11-06T07:30:01.326Z,2.42
2022-11-06T07:32:28.723Z,2.00
2022-11-06T07:34:56.018Z,2.10
2022-11-06T07:37:23.460Z,1.77
2022-11-06T07:39:50.671Z,1.58
2022-11-06T07:42:17.994Z,1.98
2022-11-06T07:44:57.501Z,2.03
2022-11-06T07:47:24.890Z,1.73
2022-11-06T07:49:52.205Z,1.90
2022-11-06T07:52:19.467Z,2.78
2022-11-06T07:54:46.718Z,2.22
2022-11-06T07:57:14.284Z,2.13
2022-11-06T07:59:42.496Z,2.30
2022-11-06T08:02:12.278Z,2.20
2022-11-06T08:04:40.155Z,1.83
2022-11-06T08:07:07.696Z,2.72
2022-11-06T08:09:35.178Z,1.80
2022-11-06T08:12:02.639Z,1.70
2022-11-06T08:14:29.906Z,2.33
2022-11-06T08:16:58.400Z,2.08
2022-11-06T08:19:25.892Z,2.10
2022-11-06T08:21:53.223Z,1.70
2022-11-06T08:24:22.077Z,1.92
2022-11-06T08:26:49.923Z,2.45
2022-11-06T08:29:17.237Z,1.75
2022-11-06T08:31:44.560Z,1.67
2022-11-06T08:34:12.644Z,1.65
2022-11-06T08:36:49.243Z,1.63
2022-11-06T08:39:17.013Z,2.45
2022-11-06T08:41:45.131Z,2.05
2022-11-06T08:44:12.508Z,1.98
2022-11-06T08:46:39.779Z,2.35
2022-11-06T08:49:07.070Z,2.30
2022-11-06T08:51:34.336Z,2.58
2022-11-06T08:54:01.634Z,2.03
2022-11-06T08:56:28.951Z,2.10
2022-11-06T08:58:56.413Z,2.10
2022-11-06T09:01:26.677Z,3.03
2022-11-06T09:03:53.964Z,2.45
2022-11-06T09:06:21.238Z,1.75
2022-11-06T09:08:48.581Z,2.88
2022-11-06T09:11:15.950Z,2.00
2022-11-06T09:13:43.183Z,2.20
2022-11-06T09:16:15.536Z,1.70
2022-11-06T09:18:43.632Z,2.22
2022-11-06T09:21:10.907Z,1.65
2022-11-06T09:23:38.213Z,1.85
2022-11-06T09:26:05.552Z,2.20
2022-11-06T09:28:32.927Z,1.85
2022-11-06T09:31:02.256Z,1.80
2022-11-06T09:33:29.693Z,1.90
2022-11-06T09:35:57.035Z,1.83
2022-11-06T09:38:24.334Z,2.05
2022-11-06T09:40:58.011Z,1.70
2022-11-06T09:44:03.443Z,2.25
2022-11-06T09:46:29.540Z,2.00
2022-11-06T09:49:13.779Z,1.58
2022-11-06T09:52:28.223Z,1.83
2022-11-06T09:55:16.214Z,1.67
2022-11-06T09:58:09.688Z,1.45
2022-11-06T10:00:38.396Z,2.20
2022-11-06T10:03:18.212Z,1.58
2022-11-06T10:05:47.208Z,1.60
2022-11-06T10:08:19.734Z,2.13
2022-11-06T10:10:53.692Z,1.92
2022-11-06T10:13:43.037Z,1.67
2022-11-06T10:16:16.374Z,2.45
2022-11-06T10:19:08.753Z,1.80
2022-11-06T10:21:45.079Z,1.65
2022-11-06T10:24:30.983Z,1.80
2022-11-06T10:26:58.711Z,1.60
2022-11-06T10:29:44.984Z,1.40
2022-11-06T10:32:27.598Z,1.70
2022-11-06T10:35:13.908Z,1.73
2022-11-06T10:38:11.075Z,1.73
2022-11-06T10:40:39.095Z,2.00
2022-11-06T10:43:33.515Z,1.85
2022-11-06T10:46:06.243Z,1.67
2022-11-06T10:48:41.529Z,2.40
2022-11-06T10:51:27.575Z,1.65
2022-11-06T10:54:31.128Z,2.30
2022-11-06T10:57:10.331Z,2.50
2022-11-06T10:59:37.904Z,2.00
2022-11-06T11:02:32.385Z,1.98
2022-11-06T11:04:59.792Z,1.80
2022-11-06T11:07:33.897Z,2.38
2022-11-06T11:10:24.201Z,2.00
2022-11-06T11:12:56.796Z,2.38
2022-11-06T11:15:27.078Z,2.13
2022-11-06T11:18:12.819Z,2.13
2022-11-06T11:20:46.239Z,2.10
2022-11-06T11:23:20.558Z,2.25
2022-11-06T11:25:51.459Z,1.60
2022-11-06T11:28:32.270Z,2.92
2022-11-06T11:31:11.050Z,1.95
2022-11-06T11:33:40.532Z,2.03
2022-11-06T11:36:09.872Z,1.70
2022-11-06T11:38:40.111Z,1.98
2022-11-06T11:41:19.271Z,1.70
2022-11-06T11:44:11.614Z,1.58
2022-11-06T11:46:53.254Z,1.70
2022-11-06T11:49:28.422Z,2.35
2022-11-06T11:51:58.147Z,1.52
2022-11-06T11:54:29.038Z,1.60
2022-11-06T11:57:06.637Z,1.40
2022-11-06T11:59:51.686Z,2.00
2022-11-06T12:02:43.685Z,1.60
2022-11-06T12:05:21.556Z,1.65
2022-11-06T12:07:54.213Z,1.40
2022-11-06T12:10:27.477Z,1.65
2022-11-06T12:12:56.685Z,1.70
2022-11-06T12:15:32.048Z,1.40
2022-11-06T12:18:06.917Z,1.80
2022-11-06T12:20:44.632Z,1.80
2022-11-06T12:23:28.528Z,1.50
2022-11-06T12:26:22.979Z,1.73
2022-11-06T12:28:54.070Z,1.70
2022-11-06T12:31:40.629Z,1.45
2022-11-06T12:34:19.602Z,1.70
2022-11-06T12:37:08.853Z,1.60
2022-11-06T12:39:40.612Z,1.60
2022-11-06T12:42:12.633Z,1.80
2022-11-06T12:44:39.948Z,1.77
2022-11-06T12:47:26.460Z,1.65
2022-11-06T12:50:09.052Z,1.70
2022-11-06T12:52:52.343Z,1.67
2022-11-06T12:55:22.518Z,1.70
2022-11-06T12:57:57.274Z,2.00
2022-11-06T13:03:38.195Z,2.00
2022-11-06T13:06:25.910Z,2.35
2022-11-06T13:09:03.003Z,2.80
2022-11-06T13:11:42.179Z,2.70
2022-11-06T13:14:30.552Z,2.78
2022-11-06T13:17:18.460Z,2.70
2022-11-06T13:19:48.556Z,3.13
2022-11-06T13:22:20.701Z,2.60
2022-11-06T13:25:07.328Z,2.63
2022-11-06T13:27:44.132Z,2.75
2022-11-06T13:30:16.702Z,2.65
2022-11-06T13:32:53.866Z,2.50
2022-11-06T13:35:22.659Z,2.80
2022-11-06T13:37:51.114Z,3.17
2022-11-06T13:40:39.859Z,2.47
2022-11-06T13:43:39.076Z,3.05
2022-11-06T13:46:32.296Z,2.58
2022-11-06T13:49:31.229Z,3.15
2022-11-06T13:52:05.388Z,2.08
2022-11-06T13:54:54.196Z,2.50
2022-11-06T13:57:43.200Z,3.25
2022-11-06T14:00:22.473Z,2.10
2022-11-06T14:03:04.732Z,1.48
2022-11-06T14:05:52.843Z,1.30
2022-11-06T14:09:18.272Z,1.65
2022-11-06T14:11:52.329Z,1.90
2022-11-06T14:14:22.674Z,1.75
2022-11-06T14:17:08.697Z,1.20
2022-11-06T14:19:36.320Z,1.63
2022-11-06T14:22:09.350Z,1.38
2022-11-06T14:24:40.888Z,3.22
2022-11-06T14:27:31.441Z,1.67
2022-11-06T14:30:06.914Z,1.98
2022-11-06T14:32:41.176Z,2.03
2022-11-06T14:35:29.969Z,2.20
2022-11-06T14:38:11.216Z,2.10
2022-11-06T14:40:39.468Z,1.80
2022-11-06T14:43:22.744Z,1.30
2022-11-06T14:46:00.894Z,1.48
2022-11-06T14:48:40.365Z,1.50
2022-11-06T14:51:11.004Z,1.30
2022-11-06T14:53:48.796Z,1.92
2022-11-06T14:56:51.974Z,1.50
2022-11-06T14:59:25.955Z,2.03
2022-11-06T15:02:05.726Z,1.83
2022-11-06T15:04:35.261Z,1.67
2022-11-06T15:07:44.662Z,1.70
2022-11-06T15:10:43.453Z,1.80
2022-11-06T15:13:13.268Z,1.92
2022-11-06T15:15:43.256Z,1.63
2022-11-06T15:18:14.754Z,2.22
2022-11-06T15:20:42.796Z,2.25
2022-11-06T15:23:30.285Z,2.40
2022-11-06T15:26:03.129Z,2.15
2022-11-06T15:28:38.923Z,1.98
2022-11-06T15:31:12.089Z,1.83
2022-11-06T15:33:56.081Z,2.13
2022-11-06T15:36:25.234Z,2.40
2022-11-06T15:38:52.635Z,1.88
2022-11-06T15:41:25.375Z,1.70
2022-11-06T15:43:55.060Z,1.80
2022-11-06T15:46:28.507Z,2.75
2022-11-06T15:49:17.400Z,1.70
2022-11-06T15:51:57.521Z,1.80
2022-11-06T15:54:44.000Z,1.40
2022-11-06T15:57:23.482Z,1.65
2022-11-06T15:59:50.811Z,1.98
2022-11-06T16:02:22.601Z,1.85
2022-11-06T16:04:50.756Z,1.63
2022-11-06T16:07:19.416Z,2.13
2022-11-06T16:09:47.451Z,1.90
2022-11-06T16:12:18.021Z,1.90
2022-11-06T16:14:45.633Z,2.13
2022-11-06T16:17:24.982Z,2.30
2022-11-06T16:19:56.836Z,2.63
2022-11-06T16:22:32.228Z,2.25
2022-11-06T16:25:03.254Z,2.20
2022-11-06T16:27:36.604Z,1.90
2022-11-06T16:30:06.378Z,2.10
2022-11-06T16:32:40.797Z,2.53
2022-11-06T16:35:34.337Z,2.67
2022-11-06T16:38:39.146Z,1.80
2022-11-06T16:41:05.435Z,2.40
2022-11-06T16:43:32.829Z,2.10
2022-11-06T16:46:07.861Z,1.80
2022-11-06T16:48:39.678Z,1.98
2022-11-06T16:51:13.028Z,2.17
2022-11-06T16:53:50.905Z,2.10
2022-11-06T16:56:24.468Z,2.45
2022-11-06T16:58:56.071Z,2.15
2022-11-06T17:01:24.066Z,2.40
2022-11-06T17:04:01.074Z,1.92
2022-11-06T17:06:31.783Z,2.65
2022-11-06T17:09:07.881Z,2.33
2022-11-06T17:11:37.043Z,2.33
2022-11-06T17:14:16.988Z,2.70
2022-11-06T17:16:49.875Z,2.20
2022-11-06T17:19:18.929Z,2.60
2022-11-06T17:21:47.465Z,2.00
2022-11-06T17:27:02.160Z,2.10
2022-11-06T17:29:29.511Z,2.08
2022-11-06T17:31:56.782Z,2.40
2022-11-06T17:34:24.006Z,2.55
2022-11-06T17:36:51.342Z,2.70
2022-11-06T17:39:18.612Z,2.72
2022-11-06T17:41:45.904Z,2.25
2022-11-06T17:44:13.287Z,2.17
2022-11-06T17:46:43.819Z,1.50
2022-11-06T17:49:17.690Z,2.28
2022-11-06T17:52:01.816Z,1.85
2022-11-06T17:54:34.469Z,1.85
2022-11-06T17:57:04.433Z,2.15
2022-11-06T17:59:32.055Z,2.08
2022-11-06T18:02:00.008Z,2.08
2022-11-06T18:04:30.558Z,2.03
2022-11-06T18:06:58.141Z,1.73
2022-11-06T18:09:25.839Z,2.10
2022-11-06T18:11:54.425Z,2.40
2022-11-06T18:14:22.669Z,2.50
2022-11-06T18:16:50.504Z,1.90
2022-11-06T18:19:21.327Z,2.50
2022-11-06T18:21:48.850Z,1.95
2022-11-06T18:24:16.281Z,1.48
2022-11-06T18:26:43.569Z,2.22
2022-11-06T18:29:12.281Z,2.00
2022-11-06T18:31:40.496Z,2.05
2022-11-06T18:34:12.962Z,2.00
2022-11-06T18:36:44.095Z,2.08
2022-11-06T18:39:12.013Z,1.98
2022-11-06T18:41:39.334Z,2.63
2022-11-06T18:44:06.596Z,2.03
2022-11-06T18:46:33.976Z,1.70
2022-11-06T18:49:01.272Z,2.30
2022-11-06T18:51:35.582Z,2.20
2022-11-06T18:54:07.056Z,2.05
2022-11-06T18:56:38.836Z,1.98
2022-11-06T18:59:14.204Z,2.05
2022-11-06T19:01:41.665Z,2.33
2022-11-06T19:04:10.609Z,1.90
2022-11-06T19:06:39.476Z,2.00
2022-11-06T19:09:08.515Z,1.80
2022-11-06T19:11:35.854Z,2.13
2022-11-06T19:14:03.148Z,2.25
2022-11-06T19:16:30.416Z,2.03
2022-11-06T19:21:30.126Z,2.00
2022-11-06T19:24:06.019Z,2.70
2022-11-06T19:26:35.861Z,2.20
2022-11-06T19:29:08.322Z,1.73
2022-11-06T19:31:37.231Z,2.05
2022-11-06T19:34:06.325Z,2.50
2022-11-06T19:36:34.642Z,2.42
2022-11-06T19:39:02.067Z,3.13
2022-11-06T19:41:29.722Z,2.00
2022-11-06T19:43:57.019Z,2.10
2022-11-06T19:46:28.423Z,1.70
2022-11-06T19:48:58.320Z,2.33
2022-11-06T19:51:25.875Z,2.40
2022-11-06T19:53:53.900Z,1.83
2022-11-06T19:56:22.110Z,2.22
2022-11-06T19:58:50.581Z,1.67
2022-11-06T20:01:19.310Z,1.90
2022-11-06T20:03:47.117Z,1.85
2022-11-06T20:06:14.750Z,1.63
2022-11-06T20:08:42.181Z,2.00
2022-11-06T20:11:14.801Z,1.77
2022-11-06T20:13:43.003Z,2.03
2022-11-06T20:16:13.007Z,2.00
2022-11-06T20:18:40.288Z,1.73
2022-11-06T20:21:12.120Z,1.60
2022-11-06T20:23:39.595Z,1.50
2022-11-06T20:26:07.994Z,1.58
2022-11-06T20:28:35.277Z,1.67
2022-11-06T20:31:11.087Z,1.50
2022-11-06T20:33:38.772Z,1.77
2022-11-06T20:36:26.926Z,1.60
2022-11-06T20:38:59.514Z,1.70
2022-11-06T20:41:28.379Z,1.75
2022-11-06T20:43:56.190Z,1.50
2022-11-06T20:46:24.871Z,1.80
2022-11-06T20:48:52.591Z,2.35
2022-11-06T20:51:26.561Z,1.90
2022-11-06T20:53:54.256Z,1.75
2022-11-06T20:56:25.257Z,1.50
2022-11-06T20:58:56.803Z,1.60
2022-11-06T21:01:27.209Z,1.63
2022-11-06T21:03:56.002Z,2.22
2022-11-06T21:06:24.711Z,1.60
2022-11-06T21:08:52.832Z,1.75
2022-11-06T21:11:23.339Z,2.00
2022-11-06T21:13:53.352Z,1.77
2022-11-06T21:16:27.265Z,2.25
2022-11-06T21:18:55.389Z,2.28
2022-11-06T21:21:26.137Z,1.90
2022-11-06T21:23:54.628Z,2.45
2022-11-06T21:26:27.618Z,1.80
2022-11-06T21:28:57.890Z,2.30
2022-11-06T21:31:27.854Z,2.00
2022-11-06T21:33:57.643Z,1.95
2022-11-06T21:36:37.236Z,1.65
2022-11-06T21:39:11.718Z,1.75
2022-11-06T21:41:39.569Z,2.10
2022-11-06T21:44:07.778Z,1.88
2022-11-06T21:46:35.536Z,1.98
2022-11-06T21:49:03.344Z,1.48
2022-11-06T21:51:32.275Z,1.90
2022-11-06T21:54:18.820Z,1.80
2022-11-06T21:56:50.606Z,2.08
2022-11-06T21:59:24.469Z,2.25
2022-11-06T22:01:52.022Z,1.70
2022-11-06T22:04:19.431Z,1.80
2022-11-06T22:06:46.688Z,2.08
2022-11-06T22:09:14.404Z,1.83
2022-11-06T22:11:44.169Z,2.30
2022-11-06T22:14:14.088Z,1.77
2022-11-06T22:16:44.520Z,2.05
2022-11-06T22:19:12.414Z,2.28
2022-11-06T22:21:40.179Z,2.00
2022-11-06T22:24:08.568Z,2.05
2022-11-06T22:26:36.319Z,2.10
2022-11-06T22:29:09.199Z,1.95
2022-11-06T22:31:36.543Z,2.10
2022-11-06T22:34:03.970Z,2.33
2022-11-06T22:36:31.430Z,1.63
2022-11-06T22:39:00.568Z,2.50
2022-11-06T22:41:27.844Z,1.73
2022-11-06T22:43:59.303Z,1.83
2022-11-06T22:46:27.361Z,1.88
2022-11-06T22:48:54.760Z,1.77
2022-11-06T22:51:29.990Z,1.77
2022-11-06T22:53:57.759Z,2.15
2022-11-06T22:56:26.314Z,1.67
2022-11-06T22:58:59.277Z,2.05
2022-11-06T23:01:28.581Z,1.50
2022-11-06T23:04:02.629Z,2.40
2022-11-06T23:06:30.493Z,2.00
2022-11-06T23:08:58.060Z,1.75
2022-11-06T23:11:27.176Z,1.90
2022-11-06T23:13:55.138Z,1.90
2022-11-06T23:16:43.827Z,2.20
2022-11-06T23:19:13.509Z,2.20
2022-11-06T23:21:41.710Z,1.90
2022-11-06T23:24:10.119Z,2.03
2022-11-06T23:26:37.688Z,2.10
2022-11-06T23:29:05.058Z,1.95
2022-11-06T23:31:32.343Z,1.88
2022-11-06T23:33:59.634Z,2.13
2022-11-06T23:36:26.956Z,2.65
2022-11-06T23:38:54.774Z,2.17
2022-11-06T23:41:40.420Z,2.00
2022-11-06T23:44:27.612Z,1.75
2022-11-06T23:46:54.953Z,2.08
2022-11-06T23:49:22.728Z,2.00
2022-11-06T23:51:50.487Z,2.08
2022-11-06T23:54:18.207Z,2.03
2022-11-06T23:56:45.462Z,2.00
2022-11-06T23:59:12.863Z,1.92
